Time;durP1;ratioP1;P1;durP2;ratioP2;P2;SDS_P1;SDS_P2;PMS_P1;PMS_P2;Temp;Humidity;BMP_temperature;BMP_pressure;BME280_temperature;BME280_humidity;BME280_pressure;Samples;Min_cycle;Max_cycle;Signal;HPM_P1;HPM_P2
2023/06/18 00:01:59;;;;;;;11.23;9.93;;;;;;;-143.84;96.10;44123.78;5089057;28;20446;-55
2023/06/18 00:04:26;;;;;;;13.23;9.17;;;;;;;-143.84;96.30;44040.00;5089284;28;20912;-55
2023/06/18 00:06:54;;;;;;;14.20;10.70;;;;;;;-143.84;96.60;44015.25;5088986;28;20533;-55
2023/06/18 00:09:21;;;;;;;17.87;10.60;;;;;;;-143.84;96.67;43944.84;5088946;28;20939;-55
2023/06/18 00:11:50;;;;;;;21.50;10.10;;;;;;;-143.84;97.04;43912.47;5088747;28;20442;-55
2023/06/18 00:14:17;;;;;;;15.20;12.03;;;;;;;-143.84;97.22;43876.31;5089038;28;21304;-55
2023/06/18 00:16:44;;;;;;;16.17;11.50;;;;;;;-143.84;97.24;43843.94;5089080;28;20535;-55
2023/06/18 00:19:11;;;;;;;14.83;11.37;;;;;;;-143.84;97.35;43832.53;5089384;28;21317;-55
2023/06/18 00:21:38;;;;;;;12.87;10.17;;;;;;;-143.84;97.30;43861.06;5089095;28;20502;-55
2023/06/18 00:24:06;;;;;;;18.43;9.03;;;;;;;-143.84;97.44;43830.63;5089260;28;20441;-55
2023/06/18 00:26:33;;;;;;;14.83;10.33;;;;;;;-143.84;97.44;43790.66;5088739;28;20438;-55
2023/06/18 00:29:02;;;;;;;13.27;10.30;;;;;;;-143.84;97.63;43853.47;5089272;28;20491;-55
2023/06/18 00:31:32;;;;;;;13.07;10.87;;;;;;;-143.84;97.74;43800.16;5088784;28;20445;-55
2023/06/18 00:34:04;;;;;;;13.23;10.57;;;;;;;-143.84;97.73;43817.31;5088786;28;20941;-55
2023/06/18 00:36:32;;;;;;;15.50;10.50;;;;;;;-143.84;97.87;43790.66;5088761;28;20963;-55
2023/06/18 00:38:59;;;;;;;16.57;12.10;;;;;;;-143.84;97.98;43777.31;5088602;28;20468;-56
2023/06/18 00:41:27;;;;;;;16.10;10.73;;;;;;;-143.84;97.89;43802.06;5088471;28;20812;-55
2023/06/18 00:43:57;;;;;;;14.67;11.57;;;;;;;-143.84;97.86;43784.94;5088708;28;20882;-55
2023/06/18 00:46:26;;;;;;;14.93;11.07;;;;;;;-143.84;98.09;43800.16;5088652;28;20442;-55
2023/06/18 00:48:54;;;;;;;15.47;11.70;;;;;;;-143.84;98.11;43792.56;5088825;28;20449;-55
2023/06/18 00:51:26;;;;;;;15.10;10.47;;;;;;;-143.84;98.19;43773.53;5088711;28;20786;-55
2023/06/18 00:53:53;;;;;;;15.20;9.00;;;;;;;-143.84;98.21;43800.16;5090880;28;20514;-55
2023/06/18 00:56:22;;;;;;;17.23;11.07;;;;;;;-143.84;98.18;43794.47;5092520;28;20434;-55
2023/06/18 00:58:49;;;;;;;15.23;11.37;;;;;;;-143.84;98.15;43805.88;5092562;28;20561;-55
2023/06/18 01:01:16;;;;;;;12.33;10.33;;;;;;;-143.84;98.15;43783.03;5092298;28;20441;-55
2023/06/18 01:03:47;;;;;;;13.77;10.80;;;;;;;-143.84;98.19;43746.88;5092155;28;20435;-55
2023/06/18 01:06:17;;;;;;;12.53;9.53;;;;;;;-143.84;98.21;43786.84;5092273;28;20545;-55
2023/06/18 01:08:48;;;;;;;15.90;10.77;;;;;;;-143.84;98.18;43777.31;5092351;28;20465;-55
2023/06/18 01:11:19;;;;;;;15.13;9.97;;;;;;;-143.84;98.23;43781.13;5091784;28;20442;-55
2023/06/18 01:13:47;;;;;;;15.53;10.83;;;;;;;-143.84;98.29;43802.06;5092377;28;20526;-55
2023/06/18 01:16:16;;;;;;;19.20;10.50;;;;;;;-143.84;98.50;43784.94;5092051;28;21361;-56
2023/06/18 01:18:46;;;;;;;17.63;11.17;;;;;;;-143.84;98.35;43830.63;5092129;28;20528;-56
2023/06/18 01:21:18;;;;;;;18.90;10.73;;;;;;;-143.84;98.24;43760.19;5092335;28;20865;-55
2023/06/18 01:23:57;;;;;;;12.47;11.03;;;;;;;-143.84;98.18;43783.03;5092010;28;20440;-55
2023/06/18 01:26:26;;;;;;;11.50;10.30;;;;;;;-143.84;98.49;43794.47;5092637;28;20454;-55
2023/06/18 01:28:58;;;;;;;17.53;10.43;;;;;;;-143.84;98.42;43803.97;5091932;28;20446;-55
2023/06/18 01:31:26;;;;;;;13.30;10.20;;;;;;;-143.84;98.66;43796.34;5092125;28;20443;-55
2023/06/18 01:33:54;;;;;;;16.40;11.90;;;;;;;-143.84;98.58;43859.19;5091773;28;20491;-55
2023/06/18 01:36:39;;;;;;;14.30;11.13;;;;;;;-143.84;98.59;43771.63;5091788;28;21272;-55
2023/06/18 01:39:16;;;;;;;22.80;13.20;;;;;;;-143.84;98.42;43798.25;5091106;28;20579;-55
2023/06/18 01:41:45;;;;;;;13.20;11.37;;;;;;;-143.84;98.55;43805.88;5091666;28;20505;-55
2023/06/18 01:44:20;;;;;;;12.00;10.80;;;;;;;-143.84;98.78;43800.16;5091757;28;20436;-56
2023/06/18 01:46:51;;;;;;;14.00;11.30;;;;;;;-143.84;98.79;43802.06;5091753;28;20476;-55
2023/06/18 01:49:22;;;;;;;17.50;11.83;;;;;;;-143.84;98.69;43817.31;5091528;28;20509;-55
2023/06/18 01:51:51;;;;;;;20.93;11.33;;;;;;;-143.84;98.58;43807.78;5091330;28;20503;-55
2023/06/18 01:54:23;;;;;;;13.80;12.40;;;;;;;-143.84;98.75;43796.34;5091324;28;20449;-55
2023/06/18 01:56:51;;;;;;;17.93;12.20;;;;;;;-143.84;98.89;43826.81;5091631;28;20554;-55
2023/06/18 01:59:19;;;;;;;15.93;12.40;;;;;;;-143.84;99.03;43800.16;5091635;28;20512;-55
2023/06/18 02:01:46;;;;;;;18.60;13.00;;;;;;;-143.84;99.16;43809.69;5091309;28;20451;-55
2023/06/18 02:04:13;;;;;;;19.17;13.43;;;;;;;-143.84;99.03;43790.66;5090907;28;20825;-55
2023/06/18 02:06:42;;;;;;;15.70;12.80;;;;;;;-143.84;99.09;43815.41;5091314;28;20442;-55
2023/06/18 02:09:09;;;;;;;23.53;12.93;;;;;;;-143.84;99.03;43824.91;5090904;28;20852;-56
2023/06/18 02:11:36;;;;;;;21.13;13.27;;;;;;;-143.84;99.06;43803.97;5091046;28;20473;-55
2023/06/18 02:14:03;;;;;;;14.47;12.97;;;;;;;-143.84;99.12;43821.09;5091080;28;20767;-55
2023/06/18 02:16:31;;;;;;;13.80;11.73;;;;;;;-143.84;99.27;43817.31;5090887;28;20550;-55
2023/06/18 02:18:58;;;;;;;17.80;11.87;;;;;;;-143.84;99.21;43811.59;5090927;28;20481;-55
2023/06/18 02:21:25;;;;;;;23.10;13.70;;;;;;;-143.84;99.02;43798.25;5090976;28;20447;-55
2023/06/18 02:23:53;;;;;;;20.77;12.63;;;;;;;-143.84;99.20;43811.59;5090611;28;20890;-55
2023/06/18 02:26:20;;;;;;;12.53;11.23;;;;;;;-143.84;99.18;43821.09;5090545;28;20679;-55
2023/06/18 02:28:47;;;;;;;15.77;11.40;;;;;;;-143.84;98.98;43815.41;5090308;28;20440;-55
2023/06/18 02:31:14;;;;;;;21.33;13.07;;;;;;;-143.84;98.67;43807.78;5090490;28;21009;-55
2023/06/18 02:33:42;;;;;;;18.43;12.20;;;;;;;-143.84;98.81;43796.34;5090656;28;20449;-55
2023/06/18 02:36:10;;;;;;;15.80;12.20;;;;;;;-143.84;98.92;43838.25;5090193;28;20503;-55
2023/06/18 02:38:37;;;;;;;18.00;13.13;;;;;;;-143.84;99.11;43802.06;5089816;28;20477;-56
2023/06/18 02:41:06;;;;;;;20.53;12.80;;;;;;;-143.84;99.00;43821.09;5089992;28;20874;-55
2023/06/18 02:43:36;;;;;;;25.37;13.40;;;;;;;-143.84;98.73;43819.19;5090636;28;20449;-56
2023/06/18 02:46:03;;;;;;;18.23;11.60;;;;;;;-143.84;99.00;43792.56;5090470;28;20579;-55
2023/06/18 02:48:30;;;;;;;18.27;13.17;;;;;;;-143.84;98.74;43767.81;5090753;28;20464;-55
2023/06/18 02:50:57;;;;;;;20.10;13.00;;;;;;;-143.84;98.82;43809.69;5090503;28;20491;-55
2023/06/18 02:53:24;;;;;;;14.07;12.50;;;;;;;-143.84;98.83;43771.63;5090391;28;20492;-55
2023/06/18 02:55:51;;;;;;;13.63;11.73;;;;;;;-143.84;98.71;43802.06;5090129;28;21291;-55
2023/06/18 02:58:27;;;;;;;18.70;12.77;;;;;;;-143.84;98.66;43803.97;5090215;28;20483;-55
2023/06/18 03:00:55;;;;;;;19.30;13.00;;;;;;;-143.84;98.40;43800.16;5090507;28;20450;-55
2023/06/18 03:03:23;;;;;;;19.60;13.07;;;;;;;-143.84;98.33;43786.84;5090282;28;20442;-55
2023/06/18 03:05:50;;;;;;;18.23;12.57;;;;;;;-143.84;98.41;43792.56;5090023;28;20503;-55
2023/06/18 03:08:19;;;;;;;17.80;12.70;;;;;;;-143.84;98.12;43796.34;5089693;28;20450;-55
2023/06/18 03:10:47;;;;;;;20.50;12.20;;;;;;;-143.84;98.05;43800.16;5089516;28;20454;-55
2023/06/18 03:13:14;;;;;;;15.40;11.40;;;;;;;-143.84;97.52;43807.78;5089935;28;20515;-55
2023/06/18 03:15:44;;;;;;;14.10;11.43;;;;;;;-143.84;97.46;43817.31;5089020;28;20494;-55
2023/06/18 03:18:11;;;;;;;17.27;12.57;;;;;;;-143.84;97.38;43815.41;5089680;28;20440;-55
2023/06/18 03:20:38;;;;;;;20.77;13.53;;;;;;;-143.84;97.24;43803.97;5089798;28;20538;-55
2023/06/18 03:23:05;;;;;;;16.63;12.10;;;;;;;-143.84;97.16;43834.44;5089779;28;20443;-55
2023/06/18 03:25:33;;;;;;;15.03;12.40;;;;;;;-143.84;96.70;43832.53;5089694;28;20457;-55
2023/06/18 03:28:00;;;;;;;14.77;12.57;;;;;;;-143.84;96.46;43906.75;5089676;28;20504;-55
2023/06/18 03:30:27;;;;;;;13.40;12.13;;;;;;;-143.84;96.27;43937.22;5089608;28;20439;-55
2023/06/18 03:32:56;;;;;;;15.93;13.43;;;;;;;-143.84;95.78;43982.91;5089555;28;20572;-55
2023/06/18 03:35:23;;;;;;;13.20;11.30;;;;;;;-143.84;94.94;44102.84;5089604;28;20451;-55
2023/06/18 03:37:50;;;;;;;14.53;11.67;;;;;;;-143.84;94.19;44298.91;5089557;28;20517;-55
2023/06/18 03:40:17;;;;;;;14.60;11.33;;;;;;;-143.84;92.99;44534.97;5089065;28;20486;-55
2023/06/18 03:42:44;;;;;;;12.27;11.03;;;;;;;-143.84;92.26;44611.13;5089113;28;20433;-55
2023/06/18 03:45:12;;;;;;;13.60;10.77;;;;;;;-143.84;91.00;44782.50;5088831;28;20453;-55
2023/06/18 03:47:39;;;;;;;13.10;10.50;;;;;;;-143.84;89.20;44885.31;5089391;28;20509;-55
2023/06/18 03:50:08;;;;;;;15.73;10.37;;;;;;;-143.84;87.79;44948.16;5089295;28;20478;-55
2023/06/18 03:52:36;;;;;;;16.43;11.00;;;;;;;-143.84;87.29;44942.44;5089301;28;20836;-55
2023/06/18 03:55:03;;;;;;;14.67;11.50;;;;;;;-143.84;87.41;44965.28;5089380;28;20444;-55
2023/06/18 03:57:30;;;;;;;10.63;9.30;;;;;;;-143.84;87.85;44974.81;5089591;28;20428;-55
2023/06/18 03:59:57;;;;;;;18.40;10.53;;;;;;;-143.84;87.87;44980.53;5089077;28;20490;-55
2023/06/18 04:02:25;;;;;;;14.63;10.63;;;;;;;-143.84;87.85;44972.91;5089222;28;20996;-55
2023/06/18 04:04:52;;;;;;;10.90;9.80;;;;;;;-143.84;87.08;44995.75;5089022;28;20451;-55
2023/06/18 04:07:20;;;;;;;13.03;10.20;;;;;;;-143.84;86.62;44963.38;5089418;28;20440;-55
2023/06/18 04:09:47;;;;;;;18.53;10.23;;;;;;;-143.84;86.76;44986.22;5089149;28;20451;-55
2023/06/18 04:12:15;;;;;;;15.63;9.73;;;;;;;-143.84;86.17;44972.91;5088901;28;20962;-56
2023/06/18 04:14:42;;;;;;;14.50;10.00;;;;;;;-143.84;85.86;45003.38;5088964;28;20440;-56
2023/06/18 04:17:09;;;;;;;13.90;9.77;;;;;;;-143.84;85.98;44972.91;5088948;28;20540;-55
2023/06/18 04:19:36;;;;;;;13.10;8.23;;;;;;;-143.84;85.71;44988.13;5088755;28;20476;-55
2023/06/18 04:22:04;;;;;;;15.03;9.40;;;;;;;-143.84;85.74;45018.59;5089282;28;20441;-55
2023/06/18 04:24:32;;;;;;;10.20;9.10;;;;;;;-143.84;85.02;45005.28;5089102;28;20444;-55
2023/06/18 04:26:59;;;;;;;11.53;9.60;;;;;;;-143.84;84.50;45003.38;5089068;28;20510;-55
2023/06/18 04:29:26;;;;;;;15.23;10.17;;;;;;;-143.84;84.16;45012.88;5092426;28;20507;-55
2023/06/18 04:31:53;;;;;;;12.83;9.17;;;;;;;-143.84;83.37;45045.25;5093483;28;20444;-55
2023/06/18 04:34:21;;;;;;;9.90;9.00;;;;;;;-143.84;82.43;45039.53;5093047;28;20440;-55
2023/06/18 04:36:48;;;;;;;9.30;8.40;;;;;;;-143.84;81.85;45043.34;5093253;28;20437;-55
2023/06/18 04:39:15;;;;;;;11.30;10.10;;;;;;;-143.84;80.78;45037.66;5093085;28;20484;-55
2023/06/18 04:41:44;;;;;;;20.10;9.90;;;;;;;-143.84;81.21;45045.25;5093199;28;20437;-55
2023/06/18 04:44:13;;;;;;;13.83;10.43;;;;;;;-143.84;81.19;45039.53;5092360;28;20442;-55
2023/06/18 04:46:40;;;;;;;12.90;9.53;;;;;;;-143.84;80.87;45037.66;5092340;28;20529;-55
2023/06/18 04:49:07;;;;;;;13.43;9.50;;;;;;;-143.84;80.12;45041.44;5093098;28;20939;-55
2023/06/18 04:51:34;;;;;;;10.43;9.30;;;;;;;-143.84;79.24;45068.13;5092710;28;20444;-55
2023/06/18 04:54:01;;;;;;;17.93;11.10;;;;;;;-143.84;78.96;45047.16;5092483;28;20498;-55
2023/06/18 04:56:28;;;;;;;18.27;10.77;;;;;;;-143.84;78.65;45041.44;5092528;28;20457;-55
2023/06/18 04:58:57;;;;;;;17.67;11.10;;;;;;;-143.84;78.67;45039.53;5092665;28;20568;-54
2023/06/18 05:01:24;;;;;;;11.60;10.10;;;;;;;-143.84;77.50;45054.78;5092427;28;20814;-55
2023/06/18 05:03:51;;;;;;;12.80;11.37;;;;;;;-143.84;76.86;45037.66;5092818;28;20447;-54
2023/06/18 05:06:18;;;;;;;11.33;10.23;;;;;;;-143.84;76.48;45045.25;5092632;28;20444;-55
2023/06/18 05:08:46;;;;;;;21.63;12.20;;;;;;;-143.84;75.35;45054.78;5092502;28;20443;-54
2023/06/18 05:11:13;;;;;;;16.57;12.33;;;;;;;-143.84;74.83;45045.25;5092162;28;20441;-54
2023/06/18 05:13:40;;;;;;;15.80;12.13;;;;;;;-143.84;74.80;45037.66;5092244;28;21217;-55
2023/06/18 05:16:09;;;;;;;15.73;12.40;;;;;;;-143.84;74.65;45056.69;5091556;28;20485;-54
2023/06/18 05:18:37;;;;;;;18.43;13.43;;;;;;;-143.84;74.28;45056.69;5092266;28;20439;-56
2023/06/18 05:21:04;;;;;;;17.50;12.87;;;;;;;-143.84;73.72;45049.06;5091853;28;20438;-56
2023/06/18 05:23:31;;;;;;;14.00;12.47;;;;;;;-143.84;73.71;45060.50;5092097;28;20518;-56
2023/06/18 05:25:58;;;;;;;16.30;12.90;;;;;;;-143.84;73.84;45049.06;5092075;28;20521;-55
2023/06/18 05:28:25;;;;;;;15.80;14.17;;;;;;;-143.84;72.99;45068.13;5091951;28;20485;-56
2023/06/18 05:30:52;;;;;;;15.83;14.13;;;;;;;-143.84;72.55;45031.94;5091979;28;20438;-55
2023/06/18 05:33:21;;;;;;;14.67;13.13;;;;;;;-143.84;71.57;45050.97;5091856;28;20435;-55
2023/06/18 05:35:48;;;;;;;13.87;12.37;;;;;;;-143.84;70.40;45068.13;5091761;28;20969;-55
2023/06/18 05:38:15;;;;;;;13.53;11.70;;;;;;;-143.84;68.89;45026.22;5091900;28;20450;-56
2023/06/18 05:40:42;;;;;;;13.10;11.80;;;;;;;-143.84;67.26;45031.94;5091139;28;21065;-55
2023/06/18 05:43:09;;;;;;;14.40;12.90;;;;;;;-143.84;67.00;45052.88;5091581;28;20878;-56
2023/06/18 05:45:36;;;;;;;17.00;11.13;;;;;;;-143.84;65.80;45018.59;5091540;28;20505;-55
2023/06/18 05:48:03;;;;;;;17.00;11.43;;;;;;;-143.84;63.82;45005.28;5091877;28;20441;-56
2023/06/18 05:50:32;;;;;;;22.80;11.00;;;;;;;-143.84;62.74;45033.84;5091417;28;20472;-56
2023/06/18 05:52:59;;;;;;;17.03;10.30;;;;;;;-143.84;61.23;45018.59;5091405;28;20485;-56
2023/06/18 05:55:26;;;;;;;10.50;9.60;;;;;;;-143.84;59.05;45018.59;5091220;28;20468;-56
2023/06/18 05:57:53;;;;;;;18.50;9.80;;;;;;;-143.84;58.53;45009.09;5091280;28;20532;-55
2023/06/18 06:00:21;;;;;;;13.80;10.10;;;;;;;-143.84;57.47;45031.94;5091090;28;20543;-56
2023/06/18 06:02:48;;;;;;;12.90;9.57;;;;;;;-143.84;56.38;45031.94;5091547;28;20445;-56
2023/06/18 06:05:15;;;;;;;11.97;9.27;;;;;;;-143.84;55.00;45033.84;5091237;28;20492;-56
2023/06/18 06:07:44;;;;;;;9.83;8.90;;;;;;;-143.84;54.72;45003.38;5091136;28;20447;-56
2023/06/18 06:10:13;;;;;;;11.27;10.27;;;;;;;-143.84;55.37;45018.59;5091270;28;21061;-56
2023/06/18 06:12:40;;;;;;;12.10;9.43;;;;;;;-143.84;54.44;44984.31;5090919;28;20444;-56
2023/06/18 06:15:09;;;;;;;13.40;10.07;;;;;;;-143.84;52.14;44991.94;5091220;28;20772;-56
2023/06/18 06:17:36;;;;;;;12.20;8.70;;;;;;;-143.84;51.82;44986.22;5091001;28;20521;-56
2023/06/18 06:20:04;;;;;;;10.53;9.53;;;;;;;-143.84;52.11;44999.56;5091063;28;21008;-56
2023/06/18 06:22:31;;;;;;;20.80;9.80;;;;;;;-143.84;51.20;44978.63;5090842;28;20441;-56
2023/06/18 06:25:00;;;;;;;9.57;8.40;;;;;;;-143.84;50.53;44991.94;5091187;28;20869;-56
2023/06/18 06:27:27;;;;;;;11.17;9.40;;;;;;;-143.84;49.46;44978.63;5090370;28;21039;-56
2023/06/18 06:29:54;;;;;;;15.83;9.00;;;;;;;-143.84;49.82;44991.94;5090528;28;20435;-56
2023/06/18 06:32:21;;;;;;;13.60;8.53;;;;;;;-143.84;48.85;44953.88;5090570;28;20451;-56
2023/06/18 06:34:48;;;;;;;9.40;8.17;;;;;;;-143.84;47.55;44980.53;5090520;28;20990;-56
2023/06/18 06:37:16;;;;;;;12.80;8.93;;;;;;;-143.84;46.80;44986.22;5090756;28;20444;-56
2023/06/18 06:39:44;;;;;;;14.20;8.60;;;;;;;-143.84;46.68;44950.06;5090495;28;20537;-56
2023/06/18 06:43:05;;;;;;;10.03;9.10;;;;;;;-143.84;47.72;44967.19;5090547;28;20443;-56
2023/06/18 06:45:42;;;;;;;9.07;7.87;;;;;;;-143.84;47.03;44969.09;5090307;28;20451;-56
2023/06/18 06:48:26;;;;;;;9.20;8.40;;;;;;;-143.84;47.71;44995.75;5090253;28;20443;-56
2023/06/18 06:51:24;;;;;;;9.10;8.13;;;;;;;-143.84;46.72;44984.31;5054869;28;20470;-56
2023/06/18 06:53:51;;;;;;;11.40;8.47;;;;;;;-143.84;46.20;44976.72;5090218;28;20448;-56
2023/06/18 06:56:18;;;;;;;8.77;7.97;;;;;;;-143.84;45.78;44957.66;5089997;28;20490;-56
2023/06/18 06:58:47;;;;;;;11.20;7.80;;;;;;;-143.84;45.88;44976.72;5089967;28;20497;-56
2023/06/18 07:01:14;;;;;;;12.13;8.00;;;;;;;-143.84;46.26;44942.44;5089191;28;20476;-56
2023/06/18 07:03:41;;;;;;;13.63;8.37;;;;;;;-143.84;45.83;44967.19;5089218;28;20448;-56
2023/06/18 07:06:08;;;;;;;10.20;7.90;;;;;;;-143.84;45.76;44959.56;5089708;28;20436;-56
2023/06/18 07:08:35;;;;;;;11.57;7.50;;;;;;;-143.84;45.91;44961.47;5089253;28;20441;-56
2023/06/18 07:11:03;;;;;;;11.87;8.00;;;;;;;-143.84;45.01;44991.94;5089586;28;20999;-56
2023/06/18 07:13:30;;;;;;;12.53;7.40;;;;;;;-143.84;45.53;44951.97;5089924;28;20441;-57
2023/06/18 07:15:58;;;;;;;16.20;7.73;;;;;;;-143.84;44.97;44965.28;5089763;28;21023;-56
2023/06/18 07:18:25;;;;;;;16.40;7.97;;;;;;;-143.84;45.27;44967.19;5089908;28;20444;-56
2023/06/18 07:20:53;;;;;;;11.80;7.27;;;;;;;-143.84;45.41;44961.47;5089810;28;20472;-54
2023/06/18 07:23:20;;;;;;;10.07;7.30;;;;;;;-143.84;45.41;44961.47;5089602;28;20502;-54
2023/06/18 07:25:47;;;;;;;17.77;7.73;;;;;;;-143.84;45.43;44974.81;5089658;28;20505;-54
2023/06/18 07:28:14;;;;;;;11.83;6.93;;;;;;;-143.84;45.24;44961.47;5089545;28;20500;-54
2023/06/18 07:30:41;;;;;;;15.10;7.43;;;;;;;-143.84;43.87;44925.31;5089618;28;20440;-54
2023/06/18 07:33:10;;;;;;;12.00;6.73;;;;;;;-143.84;44.78;44925.31;5089532;28;20436;-54
2023/06/18 07:35:37;;;;;;;11.57;7.30;;;;;;;-143.84;43.76;44932.91;5089729;28;20437;-54
2023/06/18 07:38:04;;;;;;;7.13;6.40;;;;;;;-143.84;44.38;44923.41;5089174;28;20448;-54
2023/06/18 07:40:33;;;;;;;8.33;6.97;;;;;;;-143.84;44.41;44946.25;5089413;28;20484;-54
2023/06/18 07:43:00;;;;;;;12.83;6.73;;;;;;;-143.84;43.64;44950.06;5088952;28;20444;-54
2023/06/18 07:45:27;;;;;;;9.93;6.30;;;;;;;-143.84;44.04;44950.06;5089429;28;20463;-54
2023/06/18 07:47:54;;;;;;;7.40;6.10;;;;;;;-143.84;42.85;44927.19;5089409;28;20447;-54
2023/06/18 07:50:23;;;;;;;13.03;5.80;;;;;;;-143.84;43.30;44953.88;5089568;28;20486;-54
2023/06/18 07:52:50;;;;;;;7.30;5.17;;;;;;;-143.84;43.45;44913.88;5089490;28;20516;-54
2023/06/18 07:55:17;;;;;;;15.53;5.90;;;;;;;-143.84;42.80;44934.81;5089135;28;21142;-54
2023/06/18 07:57:45;;;;;;;10.73;5.37;;;;;;;-143.84;42.52;44911.97;5089062;28;20436;-54
2023/06/18 08:00:13;;;;;;;7.23;5.10;;;;;;;-143.84;42.61;44915.78;5089122;28;20472;-54
2023/06/18 08:02:40;;;;;;;8.63;5.17;;;;;;;-143.84;42.73;44951.97;5088697;28;20970;-54
2023/06/18 08:05:11;;;;;;;6.43;5.37;;;;;;;-143.84;42.90;44942.44;5089020;28;20437;-54
2023/06/18 08:07:39;;;;;;;9.83;5.50;;;;;;;-143.84;42.90;44961.47;5089058;28;20474;-54
2023/06/18 08:10:07;;;;;;;6.27;5.57;;;;;;;-143.84;43.32;44929.09;5089013;28;20440;-54
2023/06/18 08:12:35;;;;;;;6.70;4.97;;;;;;;-143.84;44.23;44900.53;5089074;28;20494;-54
2023/06/18 08:15:02;;;;;;;6.73;4.90;;;;;;;-143.84;42.65;44921.50;5088762;28;20448;-54
2023/06/18 08:17:41;;;;;;;6.33;4.83;;;;;;;-143.84;42.02;44927.19;5088780;28;20487;-54
2023/06/18 08:20:09;;;;;;;13.50;4.97;;;;;;;-143.84;42.56;44904.34;5088889;28;20482;-54
2023/06/18 08:22:37;;;;;;;14.63;4.90;;;;;;;-143.84;42.37;44931.00;5088887;28;20432;-54
2023/06/18 08:25:09;;;;;;;4.93;4.47;;;;;;;-143.84;42.68;44911.97;5088744;28;20432;-54
2023/06/18 08:27:37;;;;;;;10.00;4.70;;;;;;;-143.84;41.94;44910.06;5088927;28;21114;-54
2023/06/18 08:30:05;;;;;;;7.83;4.60;;;;;;;-143.84;41.48;44934.81;5088961;28;20448;-54
2023/06/18 08:32:32;;;;;;;12.33;5.10;;;;;;;-143.84;42.06;44932.91;5088728;28;20432;-54
2023/06/18 08:35:01;;;;;;;11.63;4.70;;;;;;;-143.84;41.68;44932.91;5088932;28;20448;-54
2023/06/18 08:37:28;;;;;;;18.97;6.07;;;;;;;-143.84;41.46;44932.91;5088795;28;20436;-54
2023/06/18 08:39:55;;;;;;;10.93;4.70;;;;;;;-143.84;41.75;44911.97;5088742;28;20934;-54
2023/06/18 08:42:23;;;;;;;8.37;4.30;;;;;;;-143.84;42.02;44915.78;5088753;28;20440;-54
2023/06/18 08:44:53;;;;;;;9.53;4.80;;;;;;;-143.84;41.81;44934.81;5088714;28;20569;-54
2023/06/18 08:47:22;;;;;;;10.63;5.80;;;;;;;-143.84;41.34;44932.91;5088881;28;20868;-54
2023/06/18 08:49:51;;;;;;;9.33;7.10;;;;;;;-143.84;42.13;44927.19;5088556;28;20442;-54
2023/06/18 08:52:20;;;;;;;14.90;6.67;;;;;;;-143.84;42.14;44892.94;5088984;28;20494;-54
2023/06/18 08:54:53;;;;;;;23.13;6.10;;;;;;;-143.84;41.90;44940.53;5088266;28;20436;-54
2023/06/18 08:57:32;;;;;;;11.73;4.67;;;;;;;-143.84;40.82;44904.34;5088488;28;20505;-54
2023/06/18 09:00:01;;;;;;;5.80;5.20;;;;;;;-143.84;40.92;44919.59;5088642;28;20446;-53
2023/06/18 09:02:28;;;;;;;9.67;4.23;;;;;;;-143.84;40.90;44902.44;5088871;28;20444;-53
2023/06/18 09:04:56;;;;;;;5.13;4.50;;;;;;;-143.84;40.68;44910.06;5088261;28;20436;-53
2023/06/18 09:07:24;;;;;;;8.23;5.63;;;;;;;-143.84;40.40;44908.16;5088460;28;20447;-53
2023/06/18 09:09:51;;;;;;;5.93;5.30;;;;;;;-143.84;41.00;44904.34;5075867;28;20519;-53
2023/06/18 09:12:19;;;;;;;9.83;5.00;;;;;;;-143.84;38.59;44921.50;5068418;28;20514;-53
2023/06/18 09:14:47;;;;;;;10.87;5.23;;;;;;;-143.84;38.86;44887.22;5069806;28;20441;-53
2023/06/18 09:17:16;;;;;;;11.03;4.90;;;;;;;-143.84;40.42;44910.06;5077190;28;20479;-53
2023/06/18 09:19:44;;;;;;;13.60;6.10;;;;;;;-143.84;39.75;44896.75;5087810;28;20440;-53
2023/06/18 09:22:17;;;;;;;7.30;5.60;;;;;;;-143.84;39.62;44873.88;5091743;28;20472;-53
2023/06/18 09:24:44;;;;;;;13.80;5.83;;;;;;;-143.84;39.52;44896.75;5092051;28;20439;-53
2023/06/18 09:27:11;;;;;;;11.43;4.53;;;;;;;-143.84;38.56;44894.84;5092084;28;20861;-53
2023/06/18 09:29:40;;;;;;;8.50;5.70;;;;;;;-143.84;39.49;44868.19;5092078;28;20494;-53
2023/06/18 09:32:11;;;;;;;6.13;5.17;;;;;;;-143.84;40.25;44885.31;5091931;28;20523;-53
2023/06/18 09:34:39;;;;;;;8.73;4.33;;;;;;;-143.84;39.08;44879.59;5092049;28;20460;-53
2023/06/18 09:37:07;;;;;;;6.20;4.93;;;;;;;-143.84;39.48;44877.69;5091593;28;20970;-53
2023/06/18 09:39:35;;;;;;;11.00;5.80;;;;;;;-143.84;37.65;44879.59;5091520;28;20436;-53
2023/06/18 09:42:08;;;;;;;10.93;4.77;;;;;;;-143.84;38.61;44917.69;5088618;28;20903;-53
2023/06/18 09:44:35;;;;;;;8.33;4.73;;;;;;;-143.84;38.53;44913.88;5091449;28;20436;-53
2023/06/18 09:47:10;;;;;;;7.97;4.73;;;;;;;-143.84;39.17;44862.47;5091660;28;20455;-53
2023/06/18 09:49:41;;;;;;;12.13;5.60;;;;;;;-143.84;39.00;44891.03;5091186;28;20452;-53
2023/06/18 09:52:09;;;;;;;5.97;4.30;;;;;;;-143.84;39.04;44883.41;5090798;28;20483;-53
2023/06/18 09:54:40;;;;;;;7.30;5.90;;;;;;;-143.84;38.54;44904.34;5091516;28;20436;-53
2023/06/18 09:57:08;;;;;;;12.50;7.20;;;;;;;-143.84;39.21;44904.34;5091424;28;20523;-53
2023/06/18 09:59:36;;;;;;;9.50;4.90;;;;;;;-143.84;38.12;44875.78;5091281;28;20436;-57
2023/06/18 10:02:03;;;;;;;8.40;4.87;;;;;;;-143.84;37.01;44870.09;5091336;28;21001;-57
2023/06/18 10:04:32;;;;;;;7.37;5.10;;;;;;;-143.84;38.47;44885.31;5091181;28;20445;-57
2023/06/18 10:07:04;;;;;;;6.07;5.30;;;;;;;-143.84;39.38;44898.66;5091219;28;20501;-57
2023/06/18 10:09:33;;;;;;;11.03;4.80;;;;;;;-143.84;38.80;44913.88;5091032;28;20445;-57
2023/06/18 10:12:02;;;;;;;9.97;5.50;;;;;;;-143.84;39.56;44917.69;5091100;28;21069;-57
2023/06/18 10:14:31;;;;;;;5.30;4.80;;;;;;;-143.84;38.95;44929.09;5091360;28;20437;-57
2023/06/18 10:17:12;;;;;;;9.13;4.73;;;;;;;-143.84;39.10;44942.44;5086403;28;20488;-57
2023/06/18 10:20:03;;;;;;;12.80;6.30;;;;;;;-143.84;39.00;44902.44;5085418;28;20513;-57
2023/06/18 10:22:40;;;;;;;10.30;5.53;;;;;;;-143.84;39.28;44934.81;5084421;28;20641;-57
2023/06/18 10:25:09;;;;;;;10.23;5.70;;;;;;;-143.84;40.17;44944.34;5084298;28;20526;-57
2023/06/18 10:27:36;;;;;;;10.80;7.67;;;;;;;-143.84;40.71;44948.16;5083960;28;20997;-57
2023/06/18 10:30:05;;;;;;;12.67;8.00;;;;;;;-143.84;41.03;44934.81;5084218;28;20440;-58
2023/06/18 10:32:33;;;;;;;19.47;9.33;;;;;;;-143.84;41.19;44953.88;5087750;28;20448;-59
2023/06/18 10:35:02;;;;;;;13.90;7.57;;;;;;;-143.84;41.40;44951.97;5084691;28;21357;-59
2023/06/18 10:37:34;;;;;;;9.73;6.13;;;;;;;-143.84;41.38;44951.97;5083366;28;20814;-59
2023/06/18 10:40:02;;;;;;;11.27;5.30;;;;;;;-143.84;41.57;44967.19;5084201;28;20553;-56
2023/06/18 10:42:32;;;;;;;23.60;12.57;;;;;;;-143.84;41.71;44965.28;5084789;28;21832;-57
2023/06/18 10:45:02;;;;;;;16.53;7.90;;;;;;;-143.84;41.81;44984.31;5083706;28;20524;-57
2023/06/18 10:47:31;;;;;;;7.60;6.73;;;;;;;-143.84;42.67;44976.72;5083575;28;20972;-56
2023/06/18 10:50:16;;;;;;;9.93;5.63;;;;;;;-143.84;42.53;44951.97;5083964;28;20520;-57
2023/06/18 10:52:46;;;;;;;10.80;5.83;;;;;;;-143.84;42.33;44969.09;5083132;28;20451;-57
2023/06/18 10:55:14;;;;;;;12.97;6.73;;;;;;;-143.84;43.12;44957.66;5082852;28;20448;-56
2023/06/18 10:57:43;;;;;;;6.20;5.13;;;;;;;-143.84;42.85;44971.00;5083713;28;20447;-56
2023/06/18 11:00:19;;;;;;;12.50;5.53;;;;;;;-143.84;43.27;44988.13;5086164;28;20508;-57
2023/06/18 11:02:49;;;;;;;9.00;5.50;;;;;;;-143.84;42.92;44974.81;5087196;28;20498;-57
2023/06/18 11:05:39;;;;;;;21.37;5.30;;;;;;;-143.84;42.43;44957.66;5081866;28;20539;-57
2023/06/18 11:08:09;;;;;;;6.73;4.07;;;;;;;-143.84;44.11;44978.63;5083555;28;20529;-57
2023/06/18 11:10:37;;;;;;;12.93;4.23;;;;;;;-143.84;44.71;44976.72;5081658;28;21142;-57
2023/06/18 11:13:05;;;;;;;15.60;4.10;;;;;;;-143.84;45.24;45001.47;5083386;28;20441;-57
2023/06/18 11:15:33;;;;;;;15.90;4.20;;;;;;;-143.84;45.89;44988.13;5082612;28;20852;-58